sensor_id;sensor_type;location;lat;lon;timestamp;P1;durP1;ratioP1;P2;durP2;ratioP2
72601;SDS011;60644;55.858;37.390;2024-02-16T00:01:41;16.63;;;5.27;;
72601;SDS011;60644;55.858;37.390;2024-02-16T00:04:06;16.80;;;6.30;;
72601;SDS011;60644;55.858;37.390;2024-02-16T00:06:32;15.02;;;5.80;;
72601;SDS011;60644;55.858;37.390;2024-02-16T00:08:59;16.92;;;5.63;;
72601;SDS011;60644;55.858;37.390;2024-02-16T00:11:24;18.67;;;5.77;;
72601;SDS011;60644;55.858;37.390;2024-02-16T00:13:50;19.58;;;7.05;;
72601;SDS011;60644;55.858;37.390;2024-02-16T00:16:16;17.33;;;6.53;;
72601;SDS011;60644;55.858;37.390;2024-02-16T00:18:43;13.27;;;5.15;;
72601;SDS011;60644;55.858;37.390;2024-02-16T00:21:08;21.50;;;7.20;;
72601;SDS011;60644;55.858;37.390;2024-02-16T00:23:34;17.77;;;5.97;;
72601;SDS011;60644;55.858;37.390;2024-02-16T00:26:00;16.03;;;5.73;;
72601;SDS011;60644;55.858;37.390;2024-02-16T00:28:26;13.45;;;5.15;;
72601;SDS011;60644;55.858;37.390;2024-02-16T00:30:51;18.03;;;6.37;;
72601;SDS011;60644;55.858;37.390;2024-02-16T00:33:17;15.80;;;5.63;;
72601;SDS011;60644;55.858;37.390;2024-02-16T00:35:44;14.45;;;6.10;;
72601;SDS011;60644;55.858;37.390;2024-02-16T00:38:10;16.02;;;6.13;;
72601;SDS011;60644;55.858;37.390;2024-02-16T00:40:35;17.40;;;5.93;;
72601;SDS011;60644;55.858;37.390;2024-02-16T00:43:01;19.23;;;6.67;;
72601;SDS011;60644;55.858;37.390;2024-02-16T00:45:26;18.38;;;5.90;;
72601;SDS011;60644;55.858;37.390;2024-02-16T00:47:52;18.07;;;6.30;;
72601;SDS011;60644;55.858;37.390;2024-02-16T00:50:18;19.25;;;5.90;;
72601;SDS011;60644;55.858;37.390;2024-02-16T00:52:43;20.70;;;6.20;;
72601;SDS011;60644;55.858;37.390;2024-02-16T00:55:11;15.88;;;5.13;;
72601;SDS011;60644;55.858;37.390;2024-02-16T00:57:38;18.92;;;5.90;;
72601;SDS011;60644;55.858;37.390;2024-02-16T01:00:04;12.90;;;5.07;;
72601;SDS011;60644;55.858;37.390;2024-02-16T01:02:29;19.42;;;6.82;;
72601;SDS011;60644;55.858;37.390;2024-02-16T01:04:57;23.15;;;6.57;;
72601;SDS011;60644;55.858;37.390;2024-02-16T01:07:27;15.57;;;5.50;;
72601;SDS011;60644;55.858;37.390;2024-02-16T01:09:53;15.13;;;5.95;;
72601;SDS011;60644;55.858;37.390;2024-02-16T01:12:19;18.17;;;5.30;;
72601;SDS011;60644;55.858;37.390;2024-02-16T01:14:45;19.37;;;5.67;;
72601;SDS011;60644;55.858;37.390;2024-02-16T01:17:10;19.40;;;6.03;;
72601;SDS011;60644;55.858;37.390;2024-02-16T01:19:36;18.60;;;5.73;;
72601;SDS011;60644;55.858;37.390;2024-02-16T01:22:02;17.67;;;5.85;;
72601;SDS011;60644;55.858;37.390;2024-02-16T01:24:27;15.43;;;5.83;;
72601;SDS011;60644;55.858;37.390;2024-02-16T01:26:53;20.03;;;6.47;;
72601;SDS011;60644;55.858;37.390;2024-02-16T01:29:18;18.33;;;7.32;;
72601;SDS011;60644;55.858;37.390;2024-02-16T01:31:44;16.47;;;5.60;;
72601;SDS011;60644;55.858;37.390;2024-02-16T01:34:15;18.48;;;6.28;;
72601;SDS011;60644;55.858;37.390;2024-02-16T01:36:40;11.10;;;4.33;;
72601;SDS011;60644;55.858;37.390;2024-02-16T01:39:06;13.43;;;6.15;;
72601;SDS011;60644;55.858;37.390;2024-02-16T01:41:32;19.10;;;5.87;;
72601;SDS011;60644;55.858;37.390;2024-02-16T01:43:58;22.08;;;6.28;;
72601;SDS011;60644;55.858;37.390;2024-02-16T01:46:24;19.60;;;6.20;;
72601;SDS011;60644;55.858;37.390;2024-02-16T01:48:51;14.95;;;5.78;;
72601;SDS011;60644;55.858;37.390;2024-02-16T01:51:17;15.77;;;6.10;;
72601;SDS011;60644;55.858;37.390;2024-02-16T01:53:43;16.02;;;4.93;;
72601;SDS011;60644;55.858;37.390;2024-02-16T01:56:09;19.63;;;6.30;;
72601;SDS011;60644;55.858;37.390;2024-02-16T01:58:35;23.10;;;7.20;;
72601;SDS011;60644;55.858;37.390;2024-02-16T02:01:00;18.48;;;5.85;;
72601;SDS011;60644;55.858;37.390;2024-02-16T02:03:30;16.33;;;6.60;;
72601;SDS011;60644;55.858;37.390;2024-02-16T02:05:55;14.97;;;5.63;;
72601;SDS011;60644;55.858;37.390;2024-02-16T02:08:21;16.03;;;5.93;;
72601;SDS011;60644;55.858;37.390;2024-02-16T02:10:47;18.73;;;6.45;;
72601;SDS011;60644;55.858;37.390;2024-02-16T02:13:12;18.07;;;6.87;;
72601;SDS011;60644;55.858;37.390;2024-02-16T02:15:38;15.65;;;5.93;;
72601;SDS011;60644;55.858;37.390;2024-02-16T02:18:04;17.73;;;6.47;;
72601;SDS011;60644;55.858;37.390;2024-02-16T02:20:29;18.50;;;6.07;;
72601;SDS011;60644;55.858;37.390;2024-02-16T02:22:55;14.73;;;5.85;;
72601;SDS011;60644;55.858;37.390;2024-02-16T02:25:21;14.83;;;6.03;;
72601;SDS011;60644;55.858;37.390;2024-02-16T02:27:46;19.15;;;7.65;;
72601;SDS011;60644;55.858;37.390;2024-02-16T02:30:12;18.90;;;7.33;;
72601;SDS011;60644;55.858;37.390;2024-02-16T02:32:38;20.90;;;6.73;;
72601;SDS011;60644;55.858;37.390;2024-02-16T02:35:03;24.85;;;7.32;;
72601;SDS011;60644;55.858;37.390;2024-02-16T02:37:29;20.87;;;7.53;;
72601;SDS011;60644;55.858;37.390;2024-02-16T02:39:55;20.70;;;6.32;;
72601;SDS011;60644;55.858;37.390;2024-02-16T02:42:22;14.43;;;4.80;;
72601;SDS011;60644;55.858;37.390;2024-02-16T02:44:47;16.07;;;6.63;;
72601;SDS011;60644;55.858;37.390;2024-02-16T02:47:15;23.02;;;7.53;;
72601;SDS011;60644;55.858;37.390;2024-02-16T02:49:42;21.65;;;7.38;;
72601;SDS011;60644;55.858;37.390;2024-02-16T02:52:08;18.45;;;6.70;;
72601;SDS011;60644;55.858;37.390;2024-02-16T02:54:34;19.40;;;6.53;;
72601;SDS011;60644;55.858;37.390;2024-02-16T02:56:59;18.30;;;6.43;;
72601;SDS011;60644;55.858;37.390;2024-02-16T02:59:25;22.93;;;7.30;;
72601;SDS011;60644;55.858;37.390;2024-02-16T03:01:51;18.87;;;6.40;;
72601;SDS011;60644;55.858;37.390;2024-02-16T03:04:16;17.95;;;6.55;;
72601;SDS011;60644;55.858;37.390;2024-02-16T03:06:42;17.53;;;6.17;;
72601;SDS011;60644;55.858;37.390;2024-02-16T03:09:07;22.27;;;8.80;;
72601;SDS011;60644;55.858;37.390;2024-02-16T03:11:33;15.38;;;5.47;;
72601;SDS011;60644;55.858;37.390;2024-02-16T03:13:59;22.60;;;7.60;;
72601;SDS011;60644;55.858;37.390;2024-02-16T03:16:24;21.60;;;7.67;;
72601;SDS011;60644;55.858;37.390;2024-02-16T03:18:50;20.13;;;6.82;;
72601;SDS011;60644;55.858;37.390;2024-02-16T03:21:15;18.90;;;6.83;;
72601;SDS011;60644;55.858;37.390;2024-02-16T03:23:41;20.52;;;6.28;;
72601;SDS011;60644;55.858;37.390;2024-02-16T03:26:16;19.57;;;6.57;;
72601;SDS011;60644;55.858;37.390;2024-02-16T03:28:45;19.20;;;6.25;;
72601;SDS011;60644;55.858;37.390;2024-02-16T03:31:19;22.10;;;6.75;;
72601;SDS011;60644;55.858;37.390;2024-02-16T03:33:45;21.00;;;7.63;;
72601;SDS011;60644;55.858;37.390;2024-02-16T03:36:12;16.30;;;6.25;;
72601;SDS011;60644;55.858;37.390;2024-02-16T03:38:40;22.85;;;7.97;;
72601;SDS011;60644;55.858;37.390;2024-02-16T03:41:06;16.60;;;6.15;;
72601;SDS011;60644;55.858;37.390;2024-02-16T03:43:31;19.47;;;6.50;;
72601;SDS011;60644;55.858;37.390;2024-02-16T03:45:57;19.35;;;6.97;;
72601;SDS011;60644;55.858;37.390;2024-02-16T03:48:23;18.73;;;6.57;;
72601;SDS011;60644;55.858;37.390;2024-02-16T03:50:48;18.45;;;7.13;;
72601;SDS011;60644;55.858;37.390;2024-02-16T03:53:14;22.45;;;6.25;;
72601;SDS011;60644;55.858;37.390;2024-02-16T03:55:40;22.43;;;7.43;;
72601;SDS011;60644;55.858;37.390;2024-02-16T03:58:07;21.35;;;8.23;;
72601;SDS011;60644;55.858;37.390;2024-02-16T04:00:32;18.80;;;7.33;;
72601;SDS011;60644;55.858;37.390;2024-02-16T04:02:58;21.90;;;7.00;;
72601;SDS011;60644;55.858;37.390;2024-02-16T04:05:24;24.33;;;7.53;;
72601;SDS011;60644;55.858;37.390;2024-02-16T04:07:50;22.83;;;7.75;;
72601;SDS011;60644;55.858;37.390;2024-02-16T04:10:15;29.17;;;8.70;;
72601;SDS011;60644;55.858;37.390;2024-02-16T04:12:41;22.50;;;8.57;;
72601;SDS011;60644;55.858;37.390;2024-02-16T04:15:18;12.95;;;5.40;;
72601;SDS011;60644;55.858;37.390;2024-02-16T04:17:44;24.20;;;8.90;;
72601;SDS011;60644;55.858;37.390;2024-02-16T04:20:09;19.33;;;7.07;;
72601;SDS011;60644;55.858;37.390;2024-02-16T04:22:36;18.75;;;7.80;;
72601;SDS011;60644;55.858;37.390;2024-02-16T04:25:06;19.27;;;6.63;;
72601;SDS011;60644;55.858;37.390;2024-02-16T04:27:31;20.48;;;7.82;;
72601;SDS011;60644;55.858;37.390;2024-02-16T04:29:57;20.73;;;6.65;;
72601;SDS011;60644;55.858;37.390;2024-02-16T04:32:23;20.45;;;7.30;;
72601;SDS011;60644;55.858;37.390;2024-02-16T04:34:50;21.80;;;8.32;;
72601;SDS011;60644;55.858;37.390;2024-02-16T04:37:17;20.53;;;7.53;;
72601;SDS011;60644;55.858;37.390;2024-02-16T04:39:46;19.77;;;6.90;;
72601;SDS011;60644;55.858;37.390;2024-02-16T04:42:11;28.13;;;10.52;;
72601;SDS011;60644;55.858;37.390;2024-02-16T04:44:37;26.93;;;8.80;;
72601;SDS011;60644;55.858;37.390;2024-02-16T04:47:05;20.73;;;7.97;;
72601;SDS011;60644;55.858;37.390;2024-02-16T04:49:31;23.97;;;8.60;;
72601;SDS011;60644;55.858;37.390;2024-02-16T04:51:56;21.23;;;7.37;;
72601;SDS011;60644;55.858;37.390;2024-02-16T04:54:22;19.63;;;7.30;;
72601;SDS011;60644;55.858;37.390;2024-02-16T04:56:48;23.00;;;8.03;;
72601;SDS011;60644;55.858;37.390;2024-02-16T04:59:14;31.02;;;7.93;;
72601;SDS011;60644;55.858;37.390;2024-02-16T05:01:40;20.90;;;7.75;;
72601;SDS011;60644;55.858;37.390;2024-02-16T05:04:05;18.60;;;6.70;;
72601;SDS011;60644;55.858;37.390;2024-02-16T05:06:32;19.02;;;6.78;;
72601;SDS011;60644;55.858;37.390;2024-02-16T05:08:58;22.10;;;6.70;;
72601;SDS011;60644;55.858;37.390;2024-02-16T05:11:24;24.53;;;7.33;;
72601;SDS011;60644;55.858;37.390;2024-02-16T05:13:54;27.23;;;10.07;;
72601;SDS011;60644;55.858;37.390;2024-02-16T05:16:20;19.47;;;7.10;;
72601;SDS011;60644;55.858;37.390;2024-02-16T05:18:46;21.88;;;7.60;;
72601;SDS011;60644;55.858;37.390;2024-02-16T05:21:12;23.87;;;8.83;;
72601;SDS011;60644;55.858;37.390;2024-02-16T05:23:37;22.23;;;7.07;;
72601;SDS011;60644;55.858;37.390;2024-02-16T05:26:03;29.50;;;8.77;;
72601;SDS011;60644;55.858;37.390;2024-02-16T05:28:29;24.40;;;8.13;;
72601;SDS011;60644;55.858;37.390;2024-02-16T05:30:55;19.70;;;7.07;;
72601;SDS011;60644;55.858;37.390;2024-02-16T05:33:21;23.85;;;9.10;;
72601;SDS011;60644;55.858;37.390;2024-02-16T05:35:46;15.97;;;6.30;;
72601;SDS011;60644;55.858;37.390;2024-02-16T05:38:16;20.33;;;8.45;;
72601;SDS011;60644;55.858;37.390;2024-02-16T05:40:58;18.67;;;6.70;;
72601;SDS011;60644;55.858;37.390;2024-02-16T05:43:23;26.75;;;8.82;;
72601;SDS011;60644;55.858;37.390;2024-02-16T05:45:49;24.10;;;9.03;;
72601;SDS011;60644;55.858;37.390;2024-02-16T05:48:15;21.27;;;8.02;;
72601;SDS011;60644;55.858;37.390;2024-02-16T05:50:40;24.40;;;8.97;;
72601;SDS011;60644;55.858;37.390;2024-02-16T05:53:06;25.33;;;8.25;;
72601;SDS011;60644;55.858;37.390;2024-02-16T05:55:32;16.80;;;5.40;;
72601;SDS011;60644;55.858;37.390;2024-02-16T05:57:58;21.35;;;8.02;;
72601;SDS011;60644;55.858;37.390;2024-02-16T06:00:23;18.87;;;5.97;;
72601;SDS011;60644;55.858;37.390;2024-02-16T06:02:49;20.80;;;7.63;;
72601;SDS011;60644;55.858;37.390;2024-02-16T06:05:16;21.52;;;8.48;;
72601;SDS011;60644;55.858;37.390;2024-02-16T06:07:41;27.20;;;9.10;;
72601;SDS011;60644;55.858;37.390;2024-02-16T06:10:08;23.33;;;8.20;;
72601;SDS011;60644;55.858;37.390;2024-02-16T06:12:39;23.08;;;8.38;;
72601;SDS011;60644;55.858;37.390;2024-02-16T06:15:05;25.35;;;8.23;;
72601;SDS011;60644;55.858;37.390;2024-02-16T06:17:31;21.10;;;8.97;;
72601;SDS011;60644;55.858;37.390;2024-02-16T06:19:56;17.92;;;7.25;;
72601;SDS011;60644;55.858;37.390;2024-02-16T06:22:23;22.03;;;7.87;;
72601;SDS011;60644;55.858;37.390;2024-02-16T06:24:49;25.20;;;8.63;;
72601;SDS011;60644;55.858;37.390;2024-02-16T06:27:14;24.88;;;8.57;;
72601;SDS011;60644;55.858;37.390;2024-02-16T06:29:41;22.63;;;8.13;;
72601;SDS011;60644;55.858;37.390;2024-02-16T06:32:06;23.08;;;8.27;;
72601;SDS011;60644;55.858;37.390;2024-02-16T06:34:32;20.20;;;8.33;;
72601;SDS011;60644;55.858;37.390;2024-02-16T06:36:58;26.63;;;8.10;;
72601;SDS011;60644;55.858;37.390;2024-02-16T06:39:24;28.13;;;8.80;;
72601;SDS011;60644;55.858;37.390;2024-02-16T06:41:50;22.38;;;7.88;;
72601;SDS011;60644;55.858;37.390;2024-02-16T06:44:15;16.15;;;6.68;;
72601;SDS011;60644;55.858;37.390;2024-02-16T06:46:41;18.50;;;6.63;;
72601;SDS011;60644;55.858;37.390;2024-02-16T06:49:07;19.42;;;7.88;;
72601;SDS011;60644;55.858;37.390;2024-02-16T06:51:33;18.33;;;6.20;;
72601;SDS011;60644;55.858;37.390;2024-02-16T06:53:58;16.85;;;6.80;;
72601;SDS011;60644;55.858;37.390;2024-02-16T06:56:24;22.17;;;7.67;;
72601;SDS011;60644;55.858;37.390;2024-02-16T06:58:50;22.80;;;7.53;;
72601;SDS011;60644;55.858;37.390;2024-02-16T07:01:16;19.57;;;7.37;;
72601;SDS011;60644;55.858;37.390;2024-02-16T07:03:44;19.27;;;7.40;;
72601;SDS011;60644;55.858;37.390;2024-02-16T07:06:09;21.98;;;7.15;;
72601;SDS011;60644;55.858;37.390;2024-02-16T07:08:36;20.47;;;7.30;;
72601;SDS011;60644;55.858;37.390;2024-02-16T07:11:01;13.90;;;5.07;;
72601;SDS011;60644;55.858;37.390;2024-02-16T07:13:29;16.35;;;5.50;;
72601;SDS011;60644;55.858;37.390;2024-02-16T07:15:54;16.87;;;6.30;;
72601;SDS011;60644;55.858;37.390;2024-02-16T07:18:20;14.35;;;5.50;;
72601;SDS011;60644;55.858;37.390;2024-02-16T07:20:47;18.48;;;7.55;;
72601;SDS011;60644;55.858;37.390;2024-02-16T07:23:13;22.10;;;7.37;;
72601;SDS011;60644;55.858;37.390;2024-02-16T07:25:41;21.58;;;7.10;;
72601;SDS011;60644;55.858;37.390;2024-02-16T07:28:07;19.63;;;6.90;;
72601;SDS011;60644;55.858;37.390;2024-02-16T07:30:33;21.95;;;8.48;;
72601;SDS011;60644;55.858;37.390;2024-02-16T07:32:59;19.75;;;7.70;;
72601;SDS011;60644;55.858;37.390;2024-02-16T07:35:25;20.60;;;6.47;;
72601;SDS011;60644;55.858;37.390;2024-02-16T07:37:51;17.60;;;6.05;;
72601;SDS011;60644;55.858;37.390;2024-02-16T07:40:20;14.90;;;5.93;;
72601;SDS011;60644;55.858;37.390;2024-02-16T07:42:45;21.35;;;6.22;;
72601;SDS011;60644;55.858;37.390;2024-02-16T07:45:11;17.43;;;6.73;;
72601;SDS011;60644;55.858;37.390;2024-02-16T07:47:40;17.65;;;7.07;;
72601;SDS011;60644;55.858;37.390;2024-02-16T07:50:06;13.98;;;5.55;;
72601;SDS011;60644;55.858;37.390;2024-02-16T07:52:31;17.37;;;5.57;;
72601;SDS011;60644;55.858;37.390;2024-02-16T07:54:57;21.65;;;7.68;;
72601;SDS011;60644;55.858;37.390;2024-02-16T07:57:23;17.80;;;6.93;;
72601;SDS011;60644;55.858;37.390;2024-02-16T07:59:49;23.03;;;8.03;;
72601;SDS011;60644;55.858;37.390;2024-02-16T08:02:14;19.17;;;7.23;;
72601;SDS011;60644;55.858;37.390;2024-02-16T08:04:47;23.58;;;7.75;;
72601;SDS011;60644;55.858;37.390;2024-02-16T08:07:13;19.85;;;7.10;;
72601;SDS011;60644;55.858;37.390;2024-02-16T08:09:39;18.25;;;7.22;;
72601;SDS011;60644;55.858;37.390;2024-02-16T08:12:05;20.57;;;8.00;;
72601;SDS011;60644;55.858;37.390;2024-02-16T08:14:32;22.27;;;8.23;;
72601;SDS011;60644;55.858;37.390;2024-02-16T08:16:59;18.13;;;6.10;;
72601;SDS011;60644;55.858;37.390;2024-02-16T08:19:26;19.27;;;6.80;;
72601;SDS011;60644;55.858;37.390;2024-02-16T08:21:56;21.83;;;8.23;;
72601;SDS011;60644;55.858;37.390;2024-02-16T08:24:22;21.03;;;7.03;;
72601;SDS011;60644;55.858;37.390;2024-02-16T08:26:48;18.45;;;6.47;;
72601;SDS011;60644;55.858;37.390;2024-02-16T08:29:13;17.57;;;6.60;;
72601;SDS011;60644;55.858;37.390;2024-02-16T08:31:39;17.67;;;7.22;;
72601;SDS011;60644;55.858;37.390;2024-02-16T08:34:05;21.10;;;8.67;;
72601;SDS011;60644;55.858;37.390;2024-02-16T08:36:38;19.13;;;7.63;;
72601;SDS011;60644;55.858;37.390;2024-02-16T08:39:08;16.45;;;6.70;;
72601;SDS011;60644;55.858;37.390;2024-02-16T08:41:39;19.00;;;6.72;;
72601;SDS011;60644;55.858;37.390;2024-02-16T08:44:06;21.03;;;7.57;;
72601;SDS011;60644;55.858;37.390;2024-02-16T08:46:37;15.25;;;6.50;;
72601;SDS011;60644;55.858;37.390;2024-02-16T08:49:03;15.52;;;6.10;;
72601;SDS011;60644;55.858;37.390;2024-02-16T08:51:29;19.73;;;6.50;;
72601;SDS011;60644;55.858;37.390;2024-02-16T08:53:55;19.30;;;6.35;;
72601;SDS011;60644;55.858;37.390;2024-02-16T08:56:20;15.33;;;6.60;;
72601;SDS011;60644;55.858;37.390;2024-02-16T08:58:46;20.80;;;7.38;;
72601;SDS011;60644;55.858;37.390;2024-02-16T09:01:12;15.38;;;5.97;;
72601;SDS011;60644;55.858;37.390;2024-02-16T09:03:38;22.98;;;7.25;;
72601;SDS011;60644;55.858;37.390;2024-02-16T09:06:05;20.77;;;6.50;;
72601;SDS011;60644;55.858;37.390;2024-02-16T09:08:31;17.87;;;6.13;;
72601;SDS011;60644;55.858;37.390;2024-02-16T09:10:59;17.38;;;6.68;;
72601;SDS011;60644;55.858;37.390;2024-02-16T09:13:24;25.23;;;8.40;;
72601;SDS011;60644;55.858;37.390;2024-02-16T09:15:50;20.63;;;7.33;;
72601;SDS011;60644;55.858;37.390;2024-02-16T09:18:17;19.20;;;6.50;;
72601;SDS011;60644;55.858;37.390;2024-02-16T09:20:43;22.45;;;6.68;;
72601;SDS011;60644;55.858;37.390;2024-02-16T09:23:08;18.63;;;7.82;;
72601;SDS011;60644;55.858;37.390;2024-02-16T09:25:35;19.20;;;6.93;;
72601;SDS011;60644;55.858;37.390;2024-02-16T09:28:01;21.83;;;7.25;;
72601;SDS011;60644;55.858;37.390;2024-02-16T09:30:27;19.15;;;7.80;;
72601;SDS011;60644;55.858;37.390;2024-02-16T09:32:53;16.87;;;7.80;;
72601;SDS011;60644;55.858;37.390;2024-02-16T09:35:19;19.13;;;7.80;;
72601;SDS011;60644;55.858;37.390;2024-02-16T09:37:44;24.80;;;8.43;;
72601;SDS011;60644;55.858;37.390;2024-02-16T09:40:11;15.95;;;6.93;;
72601;SDS011;60644;55.858;37.390;2024-02-16T09:42:37;13.43;;;5.05;;
72601;SDS011;60644;55.858;37.390;2024-02-16T09:45:04;17.83;;;7.33;;
72601;SDS011;60644;55.858;37.390;2024-02-16T09:47:30;20.15;;;7.57;;
72601;SDS011;60644;55.858;37.390;2024-02-16T09:49:58;18.73;;;7.47;;
72601;SDS011;60644;55.858;37.390;2024-02-16T09:52:23;19.60;;;6.33;;
72601;SDS011;60644;55.858;37.390;2024-02-16T09:54:49;20.05;;;7.05;;
72601;SDS011;60644;55.858;37.390;2024-02-16T09:57:18;11.43;;;3.70;;
72601;SDS011;60644;55.858;37.390;2024-02-16T09:59:44;20.15;;;7.85;;
72601;SDS011;60644;55.858;37.390;2024-02-16T10:02:09;20.88;;;8.18;;
72601;SDS011;60644;55.858;37.390;2024-02-16T10:04:36;20.20;;;8.83;;
72601;SDS011;60644;55.858;37.390;2024-02-16T10:07:05;22.55;;;8.15;;
72601;SDS011;60644;55.858;37.390;2024-02-16T10:09:31;19.38;;;7.95;;
72601;SDS011;60644;55.858;37.390;2024-02-16T10:12:00;23.67;;;8.37;;
72601;SDS011;60644;55.858;37.390;2024-02-16T10:14:26;23.85;;;8.77;;
72601;SDS011;60644;55.858;37.390;2024-02-16T10:17:04;21.48;;;8.57;;
72601;SDS011;60644;55.858;37.390;2024-02-16T10:19:31;18.75;;;7.93;;
72601;SDS011;60644;55.858;37.390;2024-02-16T10:22:08;20.87;;;7.80;;
72601;SDS011;60644;55.858;37.390;2024-02-16T10:24:33;20.70;;;8.70;;
72601;SDS011;60644;55.858;37.390;2024-02-16T10:26:59;22.98;;;8.73;;
72601;SDS011;60644;55.858;37.390;2024-02-16T10:29:25;20.77;;;8.50;;
72601;SDS011;60644;55.858;37.390;2024-02-16T10:31:52;22.20;;;8.63;;
72601;SDS011;60644;55.858;37.390;2024-02-16T10:34:18;19.33;;;7.20;;
72601;SDS011;60644;55.858;37.390;2024-02-16T10:36:44;19.10;;;7.40;;
72601;SDS011;60644;55.858;37.390;2024-02-16T10:39:10;18.15;;;8.05;;
72601;SDS011;60644;55.858;37.390;2024-02-16T10:41:37;22.50;;;8.77;;
72601;SDS011;60644;55.858;37.390;2024-02-16T10:44:04;21.95;;;8.98;;
72601;SDS011;60644;55.858;37.390;2024-02-16T10:46:30;19.38;;;7.78;;
72601;SDS011;60644;55.858;37.390;2024-02-16T10:48:55;20.27;;;7.85;;
72601;SDS011;60644;55.858;37.390;2024-02-16T10:51:27;21.40;;;9.33;;
72601;SDS011;60644;55.858;37.390;2024-02-16T10:53:54;20.58;;;8.52;;
72601;SDS011;60644;55.858;37.390;2024-02-16T10:56:54;24.05;;;9.18;;
72601;SDS011;60644;55.858;37.390;2024-02-16T10:59:13;21.52;;;7.78;;
72601;SDS011;60644;55.858;37.390;2024-02-16T11:01:39;22.87;;;9.20;;
72601;SDS011;60644;55.858;37.390;2024-02-16T11:04:05;23.17;;;9.45;;
72601;SDS011;60644;55.858;37.390;2024-02-16T11:06:44;21.83;;;8.25;;
72601;SDS011;60644;55.858;37.390;2024-02-16T11:09:10;19.27;;;8.10;;
72601;SDS011;60644;55.858;37.390;2024-02-16T11:11:36;22.02;;;9.15;;
72601;SDS011;60644;55.858;37.390;2024-02-16T11:14:02;25.92;;;10.48;;
72601;SDS011;60644;55.858;37.390;2024-02-16T11:16:29;25.23;;;11.07;;
72601;SDS011;60644;55.858;37.390;2024-02-16T11:18:55;22.92;;;8.57;;
72601;SDS011;60644;55.858;37.390;2024-02-16T11:21:21;20.13;;;8.30;;
72601;SDS011;60644;55.858;37.390;2024-02-16T11:23:47;22.70;;;8.73;;
72601;SDS011;60644;55.858;37.390;2024-02-16T11:26:14;24.92;;;9.63;;
72601;SDS011;60644;55.858;37.390;2024-02-16T11:28:41;20.85;;;8.07;;
72601;SDS011;60644;55.858;37.390;2024-02-16T11:31:06;23.02;;;9.77;;
72601;SDS011;60644;55.858;37.390;2024-02-16T11:33:33;24.17;;;9.73;;
72601;SDS011;60644;55.858;37.390;2024-02-16T11:36:00;23.20;;;9.80;;
72601;SDS011;60644;55.858;37.390;2024-02-16T11:38:30;24.85;;;9.45;;
72601;SDS011;60644;55.858;37.390;2024-02-16T11:40:56;19.15;;;7.78;;
72601;SDS011;60644;55.858;37.390;2024-02-16T11:43:23;23.17;;;9.75;;
72601;SDS011;60644;55.858;37.390;2024-02-16T11:45:51;24.07;;;9.93;;
72601;SDS011;60644;55.858;37.390;2024-02-16T11:48:20;28.10;;;9.25;;
72601;SDS011;60644;55.858;37.390;2024-02-16T11:50:59;29.75;;;12.68;;
72601;SDS011;60644;55.858;37.390;2024-02-16T11:53:25;22.42;;;9.13;;
72601;SDS011;60644;55.858;37.390;2024-02-16T11:55:53;29.20;;;10.90;;
72601;SDS011;60644;55.858;37.390;2024-02-16T11:58:19;29.57;;;10.20;;
72601;SDS011;60644;55.858;37.390;2024-02-16T12:00:46;23.70;;;9.80;;
72601;SDS011;60644;55.858;37.390;2024-02-16T12:03:21;27.83;;;9.80;;
72601;SDS011;60644;55.858;37.390;2024-02-16T12:05:54;26.00;;;9.83;;
72601;SDS011;60644;55.858;37.390;2024-02-16T12:08:20;21.65;;;9.32;;
72601;SDS011;60644;55.858;37.390;2024-02-16T12:10:47;26.17;;;8.73;;
72601;SDS011;60644;55.858;37.390;2024-02-16T12:13:17;25.70;;;9.85;;
72601;SDS011;60644;55.858;37.390;2024-02-16T12:15:47;21.30;;;8.40;;
72601;SDS011;60644;55.858;37.390;2024-02-16T12:18:26;22.03;;;9.70;;
72601;SDS011;60644;55.858;37.390;2024-02-16T12:21:11;22.63;;;8.93;;
72601;SDS011;60644;55.858;37.390;2024-02-16T12:23:36;23.65;;;9.65;;
72601;SDS011;60644;55.858;37.390;2024-02-16T12:26:02;23.95;;;9.63;;
72601;SDS011;60644;55.858;37.390;2024-02-16T12:28:29;25.57;;;9.70;;
72601;SDS011;60644;55.858;37.390;2024-02-16T12:30:57;28.40;;;10.95;;
72601;SDS011;60644;55.858;37.390;2024-02-16T12:33:26;22.35;;;8.93;;
72601;SDS011;60644;55.858;37.390;2024-02-16T12:35:52;21.02;;;8.80;;
72601;SDS011;60644;55.858;37.390;2024-02-16T12:38:19;29.23;;;11.87;;
72601;SDS011;60644;55.858;37.390;2024-02-16T12:40:48;27.77;;;10.60;;
72601;SDS011;60644;55.858;37.390;2024-02-16T12:43:14;26.90;;;10.35;;
72601;SDS011;60644;55.858;37.390;2024-02-16T12:45:40;26.83;;;10.13;;
72601;SDS011;60644;55.858;37.390;2024-02-16T12:48:06;24.67;;;9.90;;
72601;SDS011;60644;55.858;37.390;2024-02-16T12:50:32;25.88;;;10.98;;
72601;SDS011;60644;55.858;37.390;2024-02-16T12:52:58;25.73;;;10.95;;
72601;SDS011;60644;55.858;37.390;2024-02-16T12:55:24;23.97;;;9.27;;
72601;SDS011;60644;55.858;37.390;2024-02-16T12:57:50;26.88;;;8.90;;
72601;SDS011;60644;55.858;37.390;2024-02-16T13:00:19;30.13;;;11.55;;
72601;SDS011;60644;55.858;37.390;2024-02-16T13:02:45;24.90;;;9.73;;
72601;SDS011;60644;55.858;37.390;2024-02-16T13:05:11;24.20;;;10.20;;
72601;SDS011;60644;55.858;37.390;2024-02-16T13:07:37;24.08;;;9.70;;
72601;SDS011;60644;55.858;37.390;2024-02-16T13:10:07;26.63;;;9.93;;
72601;SDS011;60644;55.858;37.390;2024-02-16T13:12:33;26.20;;;10.67;;
72601;SDS011;60644;55.858;37.390;2024-02-16T13:14:59;25.50;;;10.15;;
72601;SDS011;60644;55.858;37.390;2024-02-16T13:17:24;25.80;;;9.83;;
72601;SDS011;60644;55.858;37.390;2024-02-16T13:19:52;25.08;;;9.60;;
72601;SDS011;60644;55.858;37.390;2024-02-16T13:22:17;27.83;;;10.10;;
72601;SDS011;60644;55.858;37.390;2024-02-16T13:24:46;23.45;;;10.55;;
72601;SDS011;60644;55.858;37.390;2024-02-16T13:27:11;25.00;;;9.87;;
72601;SDS011;60644;55.858;37.390;2024-02-16T13:29:40;26.63;;;10.75;;
72601;SDS011;60644;55.858;37.390;2024-02-16T13:32:05;25.57;;;10.10;;
72601;SDS011;60644;55.858;37.390;2024-02-16T13:34:31;23.55;;;10.10;;
72601;SDS011;60644;55.858;37.390;2024-02-16T13:36:57;23.23;;;9.77;;
72601;SDS011;60644;55.858;37.390;2024-02-16T13:39:22;27.83;;;10.65;;
72601;SDS011;60644;55.858;37.390;2024-02-16T13:41:49;25.42;;;10.77;;
72601;SDS011;60644;55.858;37.390;2024-02-16T13:44:17;20.83;;;9.98;;
72601;SDS011;60644;55.858;37.390;2024-02-16T13:46:42;27.80;;;9.80;;
72601;SDS011;60644;55.858;37.390;2024-02-16T13:49:10;20.73;;;9.10;;
72601;SDS011;60644;55.858;37.390;2024-02-16T13:51:36;19.80;;;7.47;;
72601;SDS011;60644;55.858;37.390;2024-02-16T13:54:01;23.43;;;9.67;;
72601;SDS011;60644;55.858;37.390;2024-02-16T13:56:27;26.10;;;10.47;;
72601;SDS011;60644;55.858;37.390;2024-02-16T13:58:52;23.95;;;9.23;;
72601;SDS011;60644;55.858;37.390;2024-02-16T14:01:18;22.50;;;10.00;;
72601;SDS011;60644;55.858;37.390;2024-02-16T14:03:44;23.27;;;8.90;;
72601;SDS011;60644;55.858;37.390;2024-02-16T14:06:10;25.97;;;10.10;;
72601;SDS011;60644;55.858;37.390;2024-02-16T14:08:37;30.55;;;10.13;;
72601;SDS011;60644;55.858;37.390;2024-02-16T14:11:02;25.30;;;9.73;;
72601;SDS011;60644;55.858;37.390;2024-02-16T14:13:28;23.60;;;9.00;;
72601;SDS011;60644;55.858;37.390;2024-02-16T14:15:57;24.13;;;9.17;;
72601;SDS011;60644;55.858;37.390;2024-02-16T14:18:37;20.67;;;8.32;;